Time;durP1;ratioP1;P1;durP2;ratioP2;P2;SDS_P1;SDS_P2;PMS_P1;PMS_P2;Temp;Humidity;BMP_temperature;BMP_pressure;BME280_temperature;BME280_humidity;BME280_pressure;Samples;Min_cycle;Max_cycle;Signal;HPM_P1;HPM_P2
2023/02/23 00:02:11;;;;;;;;;;;;;;;;;;5139163;27;20520;-74
2023/02/23 00:04:37;;;;;;;;;;;;;;;;;;5139041;27;19946;-74
2023/02/23 00:07:05;;;;;;;;;;;;;;;;;;5138452;27;19950;-74
2023/02/23 00:09:34;;;;;;;;;;;;;;;;;;5138953;27;19955;-74
2023/02/23 00:12:02;;;;;;;;;;;;;;;;;;5138953;27;19960;-74
2023/02/23 00:14:29;;;;;;;;;;;;;;;;;;5138266;27;20080;-74
2023/02/23 00:16:55;;;;;;;;;;;;;;;;;;5138296;27;19958;-74
2023/02/23 00:19:23;;;;;;;;;;;;;;;;;;5138498;27;20364;-74
2023/02/23 00:21:49;;;;;;;;;;;;;;;;;;5138466;27;20387;-71
2023/02/23 00:24:18;;;;;;;;;;;;;;;;;;5138951;27;19952;-74
2023/02/23 00:26:44;;;;;;;;;;;;;;;;;;5138417;27;19999;-75
2023/02/23 00:29:10;;;;;;;;;;;;;;;;;;5138870;27;20301;-74
2023/02/23 00:31:37;;;;;;;;;;;;;;;;;;5138352;27;19978;-74
2023/02/23 00:34:03;;;;;;;;;;;;;;;;;;5138271;27;20025;-74
2023/02/23 00:36:29;;;;;;;;;;;;;;;;;;5138311;27;19982;-74
2023/02/23 00:38:54;;;;;;;;;;;;;;;;;;5138469;27;20400;-74
2023/02/23 00:41:29;;;;;;;;;;;;;;;;;;5138058;27;20052;-74
2023/02/23 00:43:55;;;;;;;;;;;;;;;;;;5138240;27;19950;-73
2023/02/23 00:46:21;;;;;;;;;;;;;;;;;;5138035;27;19950;-73
2023/02/23 00:48:47;;;;;;;;;;;;;;;;;;5137967;27;19977;-73
2023/02/23 00:51:13;;;;;;;;;;;;;;;;;;5137830;27;19952;-73
2023/02/23 00:53:39;;;;;;;;;;;;;;;;;;5119289;27;20392;-73
2023/02/23 00:56:05;;;;;;;;;;;;;;;;;;5138080;27;19958;-73
2023/02/23 00:58:31;;;;;;;;;;;;;;;;;;5137659;27;19956;-74
2023/02/23 01:00:59;;;;;;;;;;;;;;;;;;5138334;27;20322;-74
2023/02/23 01:03:25;;;;;;;;;;;;;;;;;;5137858;27;19952;-74
2023/02/23 01:05:51;;;;;;;;;;;;;;;;;;5137787;27;19958;-74
2023/02/23 01:08:17;;;;;;;;;;;;;;;;;;5137332;27;19970;-73
2023/02/23 01:10:43;;;;;;;;;;;;;;;;;;5137493;27;20078;-74
2023/02/23 01:13:09;;;;;;;;;;;;;;;;;;5119037;27;19955;-74
2023/02/23 01:15:35;;;;;;;;;;;;;;;;;;5137591;27;19953;-75
2023/02/23 01:18:01;;;;;;;;;;;;;;;;;;5137938;27;20000;-74
2023/02/23 01:20:27;;;;;;;;;;;;;;;;;;5137704;27;19997;-73
2023/02/23 01:22:53;;;;;;;;;;;;;;;;;;5137415;27;19950;-73
2023/02/23 01:25:19;;;;;;;;;;;;;;;;;;5137262;27;20057;-74
2023/02/23 01:27:45;;;;;;;;;;;;;;;;;;5137548;27;20003;-75
2023/02/23 01:30:10;;;;;;;;;;;;;;;;;;5137344;27;19963;-73
2023/02/23 01:32:36;;;;;;;;;;;;;;;;;;5137853;27;20041;-75
2023/02/23 01:35:03;;;;;;;;;;;;;;;;;;5137251;27;19951;-73
2023/02/23 01:37:29;;;;;;;;;;;;;;;;;;5137717;27;19957;-74
2023/02/23 01:39:55;;;;;;;;;;;;;;;;;;5136742;27;19951;-73
2023/02/23 01:42:21;;;;;;;;;;;;;;;;;;5137217;27;19963;-73
2023/02/23 01:44:49;;;;;;;;;;;;;;;;;;5118489;27;19959;-75
2023/02/23 01:47:16;;;;;;;;;;;;;;;;;;5137070;27;19954;-75
2023/02/23 01:49:41;;;;;;;;;;;;;;;;;;5137145;27;20411;-74
2023/02/23 01:52:09;;;;;;;;;;;;;;;;;;5137314;27;20014;-74
2023/02/23 01:54:36;;;;;;;;;;;;;;;;;;5118472;27;19965;-73
2023/02/23 01:57:02;;;;;;;;;;;;;;;;;;5136811;27;19947;-73
2023/02/23 01:59:28;;;;;;;;;;;;;;;;;;5137033;27;20309;-73
2023/02/23 02:01:54;;;;;;;;;;;;;;;;;;5136839;27;19956;-73
2023/02/23 02:04:20;;;;;;;;;;;;;;;;;;5137318;27;20497;-74
2023/02/23 02:06:46;;;;;;;;;;;;;;;;;;5136705;27;19959;-73
2023/02/23 02:09:16;;;;;;;;;;;;;;;;;;5136678;27;19979;-74
2023/02/23 02:11:45;;;;;;;;;;;;;;;;;;5136374;27;19988;-74
2023/02/23 02:14:14;;;;;;;;;;;;;;;;;;5136377;27;20550;-73
2023/02/23 02:16:41;;;;;;;;;;;;;;;;;;5136892;27;19958;-74
2023/02/23 02:19:07;;;;;;;;;;;;;;;;;;5117937;27;19961;-74
2023/02/23 02:21:34;;;;;;;;;;;;;;;;;;5136224;27;19952;-74
2023/02/23 02:23:59;;;;;;;;;;;;;;;;;;5136119;27;19949;-75
2023/02/23 02:26:25;;;;;;;;;;;;;;;;;;5136418;27;20000;-73
2023/02/23 02:28:53;;;;;;;;;;;;;;;;;;5136091;27;19972;-73
2023/02/23 02:31:19;;;;;;;;;;;;;;;;;;5118094;27;19955;-74
2023/02/23 02:33:45;;;;;;;;;;;;;;;;;;5136425;27;19957;-73
2023/02/23 02:36:11;;;;;;;;;;;;;;;;;;5136329;27;20328;-74
2023/02/23 02:38:37;;;;;;;;;;;;;;;;;;5136393;27;19958;-73
2023/02/23 02:41:03;;;;;;;;;;;;;;;;;;5135123;27;19950;-76
2023/02/23 02:43:29;;;;;;;;;;;;;;;;;;5135350;27;20356;-76
2023/02/23 02:45:55;;;;;;;;;;;;;;;;;;5135572;27;19945;-74
2023/02/23 02:48:24;;;;;;;;;;;;;;;;;;5135934;27;19983;-74
2023/02/23 02:50:50;;;;;;;;;;;;;;;;;;5136241;28;20378;-73
2023/02/23 02:53:16;;;;;;;;;;;;;;;;;;5136249;28;19955;-74
2023/02/23 02:55:42;;;;;;;;;;;;;;;;;;5135851;28;19989;-73
2023/02/23 02:58:10;;;;;;;;;;;;;;;;;;5136290;28;19958;-73
2023/02/23 04:19:35;;;;;;;;;;;;;;;;;;5139046;27;19983;-73
2023/02/23 04:22:01;;;;;;;;;;;;;;;;;;5139350;27;20002;-74
2023/02/23 04:24:27;;;;;;;;;;;;;;;;;;5138800;27;20325;-73
2023/02/23 04:26:53;;;;;;;;;;;;;;;;;;5138772;27;19951;-74
2023/02/23 04:29:19;;;;;;;;;;;;;;;;;;5138544;27;19973;-74
2023/02/23 04:31:44;;;;;;;;;;;;;;;;;;5139280;27;20101;-73
2023/02/23 04:34:10;;;;;;;;;;;;;;;;;;5139012;27;19954;-73
2023/02/23 04:36:36;;;;;;;;;;;;;;;;;;5138680;27;19950;-73
2023/02/23 04:39:02;;;;;;;;;;;;;;;;;;5137325;27;19958;-74
2023/02/23 04:41:28;;;;;;;;;;;;;;;;;;5138456;27;20366;-74
2023/02/23 04:43:54;;;;;;;;;;;;;;;;;;5138226;27;19952;-73
2023/02/23 04:46:20;;;;;;;;;;;;;;;;;;5138561;27;19972;-74
2023/02/23 04:48:46;;;;;;;;;;;;;;;;;;5138477;27;20063;-74
2023/02/23 04:51:12;;;;;;;;;;;;;;;;;;5138196;27;19950;-73
2023/02/23 04:53:38;;;;;;;;;;;;;;;;;;5138972;27;19952;-74
2023/02/23 04:56:04;;;;;;;;;;;;;;;;;;5138505;27;19957;-74
2023/02/23 04:58:30;;;;;;;;;;;;;;;;;;5138409;27;19952;-73
2023/02/23 05:00:56;;;;;;;;;;;;;;;;;;5138171;27;19957;-74
2023/02/23 05:03:22;;;;;;;;;;;;;;;;;;5138651;27;20040;-73
2023/02/23 05:05:48;;;;;;;;;;;;;;;;;;5138399;27;19988;-74
2023/02/23 05:08:14;;;;;;;;;;;;;;;;;;5137921;27;19971;-75
2023/02/23 05:10:40;;;;;;;;;;;;;;;;;;5138095;27;19987;-74
2023/02/23 05:13:06;;;;;;;;;;;;;;;;;;5137657;27;20463;-73
2023/02/23 05:15:32;;;;;;;;;;;;;;;;;;5137721;27;19956;-74
2023/02/23 05:17:57;;;;;;;;;;;;;;;;;;5138034;27;20487;-73
2023/02/23 05:20:23;;;;;;;;;;;;;;;;;;5137478;27;19948;-76
2023/02/23 05:22:49;;;;;;;;;;;;;;;;;;5138208;27;20305;-74
2023/02/23 05:25:15;;;;;;;;;;;;;;;;;;5137622;27;19952;-74
2023/02/23 05:27:41;;;;;;;;;;;;;;;;;;5137581;27;19976;-73
2023/02/23 05:30:08;;;;;;;;;;;;;;;;;;5137650;27;20427;-76
2023/02/23 05:32:34;;;;;;;;;;;;;;;;;;5137508;27;19958;-74
2023/02/23 05:35:01;;;;;;;;;;;;;;;;;;5137446;27;19956;-73
2023/02/23 05:37:26;;;;;;;;;;;;;;;;;;5137599;27;20042;-74
2023/02/23 05:39:54;;;;;;;;;;;;;;;;;;5137466;27;20393;-74
2023/02/23 05:42:20;;;;;;;;;;;;;;;;;;5137521;27;19962;-73
2023/02/23 05:44:46;;;;;;;;;;;;;;;;;;5137052;27;19952;-73
2023/02/23 05:47:11;;;;;;;;;;;;;;;;;;5136897;27;20326;-74
2023/02/23 05:49:37;;;;;;;;;;;;;;;;;;5136766;27;19954;-74
2023/02/23 05:52:03;;;;;;;;;;;;;;;;;;5136573;27;20354;-73
2023/02/23 05:54:30;;;;;;;;;;;;;;;;;;5137325;27;19953;-74
2023/02/23 05:56:56;;;;;;;;;;;;;;;;;;5136771;27;19977;-74
2023/02/23 05:59:22;;;;;;;;;;;;;;;;;;5118325;27;20041;-74
2023/02/23 06:01:48;;;;;;;;;;;;;;;;;;5118113;27;19956;-73
2023/02/23 06:04:13;;;;;;;;;;;;;;;;;;5136692;27;19949;-74
2023/02/23 06:06:39;;;;;;;;;;;;;;;;;;5136757;27;20317;-74
2023/02/23 06:09:05;;;;;;;;;;;;;;;;;;5136732;27;20023;-73
2023/02/23 06:11:31;;;;;;;;;;;;;;;;;;5136078;27;20077;-74
2023/02/23 06:13:58;;;;;;;;;;;;;;;;;;5136652;27;19975;-74
2023/02/23 06:16:24;;;;;;;;;;;;;;;;;;5136906;27;20037;-73
2023/02/23 06:18:50;;;;;;;;;;;;;;;;;;5136501;27;19996;-73
2023/02/23 06:21:15;;;;;;;;;;;;;;;;;;5136351;27;19958;-73
2023/02/23 06:23:41;;;;;;;;;;;;;;;;;;5136587;27;19957;-73
2023/02/23 06:26:07;;;;;;;;;;;;;;;;;;5136577;27;19951;-73
2023/02/23 06:28:33;;;;;;;;;;;;;;;;;;5136575;27;19972;-74
2023/02/23 06:30:59;;;;;;;;;;;;;;;;;;5136183;27;20445;-73
2023/02/23 06:33:25;;;;;;;;;;;;;;;;;;5136143;27;19951;-73
2023/02/23 06:35:53;;;;;;;;;;;;;;;;;;5136348;27;19957;-74
2023/02/23 06:38:19;;;;;;;;;;;;;;;;;;5136238;27;19952;-74
2023/02/23 06:40:45;;;;;;;;;;;;;;;;;;5136109;27;20000;-73
2023/02/23 06:43:11;;;;;;;;;;;;;;;;;;5136699;27;20401;-75
2023/02/23 06:45:37;;;;;;;;;;;;;;;;;;5136238;27;19952;-74
2023/02/23 06:48:03;;;;;;;;;;;;;;;;;;5135848;27;19979;-73
2023/02/23 06:50:29;;;;;;;;;;;;;;;;;;5136016;28;19951;-74
2023/02/23 06:52:56;;;;;;;;;;;;;;;;;;5135585;27;20425;-74
2023/02/23 06:55:22;;;;;;;;;;;;;;;;;;5136373;28;19974;-74
2023/02/23 06:57:48;;;;;;;;;;;;;;;;;;5135636;28;19951;-74
2023/02/23 07:00:16;;;;;;;;;;;;;;;;;;5135977;28;19984;-74
2023/02/23 07:02:43;;;;;;;;;;;;;;;;;;5137714;27;19958;-75
2023/02/23 07:05:09;;;;;;;;;;;;;;;;;;5139999;27;19950;-74
2023/02/23 07:07:35;;;;;;;;;;;;;;;;;;5139684;27;19977;-73
2023/02/23 07:10:01;;;;;;;;;;;;;;;;;;5140324;27;19989;-73
2023/02/23 07:12:27;;;;;;;;;;;;;;;;;;5140486;27;19952;-74
2023/02/23 07:14:53;;;;;;;;;;;;;;;;;;5139810;27;20066;-73
2023/02/23 07:17:19;;;;;;;;;;;;;;;;;;5140213;27;19956;-73
2023/02/23 07:19:45;;;;;;;;;;;;;;;;;;5139606;27;20297;-74
2023/02/23 07:22:11;;;;;;;;;;;;;;;;;;5140245;27;19955;-73
2023/02/23 07:24:37;;;;;;;;;;;;;;;;;;5139627;27;19951;-73
2023/02/23 07:27:03;;;;;;;;;;;;;;;;;;5140267;27;19949;-74
2023/02/23 07:29:29;;;;;;;;;;;;;;;;;;5139446;27;19974;-74
2023/02/23 07:31:55;;;;;;;;;;;;;;;;;;5120856;27;20111;-74
2023/02/23 07:34:21;;;;;;;;;;;;;;;;;;5139956;27;20307;-73
2023/02/23 07:36:47;;;;;;;;;;;;;;;;;;5139639;27;19948;-74
2023/02/23 07:39:13;;;;;;;;;;;;;;;;;;5139567;27;19952;-74
2023/02/23 07:41:39;;;;;;;;;;;;;;;;;;5139481;27;19981;-74
2023/02/23 07:44:05;;;;;;;;;;;;;;;;;;5138999;27;19956;-74
2023/02/23 07:46:31;;;;;;;;;;;;;;;;;;5139738;27;19950;-74
2023/02/23 07:48:56;;;;;;;;;;;;;;;;;;5138825;27;19973;-74
2023/02/23 07:51:22;;;;;;;;;;;;;;;;;;5139653;27;20457;-74
2023/02/23 07:53:49;;;;;;;;;;;;;;;;;;5139109;27;19962;-73
2023/02/23 07:56:15;;;;;;;;;;;;;;;;;;5139016;27;19950;-73
2023/02/23 07:58:41;;;;;;;;;;;;;;;;;;5139216;27;20411;-76
2023/02/23 08:01:07;;;;;;;;;;;;;;;;;;5137937;27;19993;-74
2023/02/23 08:03:33;;;;;;;;;;;;;;;;;;5137948;27;19958;-73
2023/02/23 08:05:58;;;;;;;;;;;;;;;;;;5139121;27;19952;-74
2023/02/23 08:08:24;;;;;;;;;;;;;;;;;;5138899;27;19969;-74
2023/02/23 08:10:50;;;;;;;;;;;;;;;;;;5138612;27;20012;-75
2023/02/23 08:13:16;;;;;;;;;;;;;;;;;;5138417;27;20350;-74
2023/02/23 08:15:42;;;;;;;;;;;;;;;;;;5139002;27;19999;-74
2023/02/23 08:18:08;;;;;;;;;;;;;;;;;;5138718;27;19948;-73
2023/02/23 08:20:34;;;;;;;;;;;;;;;;;;5138345;27;20002;-74
2023/02/23 08:23:00;;;;;;;;;;;;;;;;;;5138547;27;20035;-73
2023/02/23 08:25:28;;;;;;;;;;;;;;;;;;5138521;27;19951;-74
2023/02/23 08:27:55;;;;;;;;;;;;;;;;;;5138275;27;19987;-74
2023/02/23 08:30:20;;;;;;;;;;;;;;;;;;5138496;27;20114;-73
2023/02/23 08:32:46;;;;;;;;;;;;;;;;;;5137757;27;19950;-72
2023/02/23 08:35:12;;;;;;;;;;;;;;;;;;5138691;27;20395;-73
2023/02/23 08:37:40;;;;;;;;;;;;;;;;;;5138046;27;20038;-74
2023/02/23 08:40:06;;;;;;;;;;;;;;;;;;5137908;27;20000;-75
2023/02/23 08:42:32;;;;;;;;;;;;;;;;;;5138071;27;20320;-75
2023/02/23 08:45:00;;;;;;;;;;;;;;;;;;5138498;27;19959;-74
2023/02/23 08:47:26;;;;;;;;;;;;;;;;;;5137540;27;20063;-73
2023/02/23 08:49:54;;;;;;;;;;;;;;;;;;5137989;27;19968;-73
2023/02/23 08:52:20;;;;;;;;;;;;;;;;;;5137939;27;20421;-74
2023/02/23 08:54:46;;;;;;;;;;;;;;;;;;5137708;27;19950;-74
2023/02/23 08:57:12;;;;;;;;;;;;;;;;;;5137831;27;19947;-74
2023/02/23 08:59:39;;;;;;;;;;;;;;;;;;5138148;27;19993;-74
2023/02/23 09:02:07;;;;;;;;;;;;;;;;;;5137822;27;19951;-74
2023/02/23 09:04:36;;;;;;;;;;;;;;;;;;5137702;27;19951;-73
2023/02/23 09:07:02;;;;;;;;;;;;;;;;;;5137519;27;19952;-73
2023/02/23 09:09:29;;;;;;;;;;;;;;;;;;5137970;27;20462;-74
2023/02/23 09:11:54;;;;;;;;;;;;;;;;;;5114991;28;19991;-74
2023/02/23 09:14:20;;;;;;;;;;;;;;;;;;5116726;28;19972;-75
2023/02/23 09:16:46;;;;;;;;;;;;;;;;;;5116990;28;19952;-75
2023/02/23 09:19:13;;;;;;;;;;;;;;;;;;5116982;28;19951;-74
2023/02/23 09:21:39;;;;;;;;;;;;;;;;;;5115237;28;19978;-74
2023/02/23 09:24:05;;;;;;;;;;;;;;;;;;5116907;28;20365;-74
2023/02/23 09:26:31;;;;;;;;;;;;;;;;;;5115660;28;19951;-74
2023/02/23 09:28:57;;;;;;;;;;;;;;;;;;5116261;28;19989;-74
2023/02/23 09:31:23;;;;;;;;;;;;;;;;;;5116451;28;19973;-75
2023/02/23 09:33:48;;;;;;;;;;;;;;;;;;5116899;28;19952;-74
2023/02/23 09:36:17;;;;;;;;;;;;;;;;;;5114705;28;19989;-75
2023/02/23 09:38:43;;;;;;;;;;;;;;;;;;5116129;28;19973;-74
2023/02/23 09:41:09;;;;;;;;;;;;;;;;;;5115993;28;20045;-75
2023/02/23 09:43:35;;;;;;;;;;;;;;;;;;5116760;28;20045;-74
2023/02/23 09:46:01;;;;;;;;;;;;;;;;;;5115800;28;19951;-75
2023/02/23 09:48:27;;;;;;;;;;;;;;;;;;5114316;28;20469;-74
2023/02/23 09:50:53;;;;;;;;;;;;;;;;;;5115700;28;20058;-73
2023/02/23 09:53:19;;;;;;;;;;;;;;;;;;5115602;28;19991;-75
2023/02/23 09:55:45;;;;;;;;;;;;;;;;;;5115517;28;19955;-74
2023/02/23 09:58:11;;;;;;;;;;;;;;;;;;5115472;28;19995;-74
2023/02/23 10:00:37;;;;;;;;;;;;;;;;;;5115387;28;19955;-73
2023/02/23 10:03:03;;;;;;;;;;;;;;;;;;5115571;28;19986;-73
2023/02/23 10:05:30;;;;;;;;;;;;;;;;;;5115464;28;19957;-75
2023/02/23 10:07:56;;;;;;;;;;;;;;;;;;5115301;28;20343;-73
2023/02/23 10:10:22;;;;;;;;;;;;;;;;;;5122357;27;19987;-74
2023/02/23 10:12:48;;;;;;;;;;;;;;;;;;5136048;27;19952;-75
2023/02/23 10:15:14;;;;;;;;;;;;;;;;;;5136110;27;20449;-73
2023/02/23 10:17:40;;;;;;;;;;;;;;;;;;5136438;27;19962;-74
2023/02/23 10:20:05;;;;;;;;;;;;;;;;;;5135607;27;19956;-74
2023/02/23 10:22:31;;;;;;;;;;;;;;;;;;5136013;27;19954;-75
2023/02/23 10:24:57;;;;;;;;;;;;;;;;;;5135835;27;19949;-74
2023/02/23 10:27:23;;;;;;;;;;;;;;;;;;5135937;27;19952;-73
2023/02/23 10:29:50;;;;;;;;;;;;;;;;;;5135667;27;20455;-74
2023/02/23 10:32:16;;;;;;;;;;;;;;;;;;5134995;27;19957;-75
2023/02/23 10:34:42;;;;;;;;;;;;;;;;;;5135163;27;20366;-70
2023/02/23 10:37:07;;;;;;;;;;;;;;;;;;5135054;27;19951;-72
2023/02/23 10:39:34;;;;;;;;;;;;;;;;;;5135120;27;20317;-69
2023/02/23 10:41:59;;;;;;;;;;;;;;;;;;5135225;27;20390;-69
2023/02/23 10:44:25;;;;;;;;;;;;;;;;;;5135041;27;19945;-67
2023/02/23 10:46:51;;;;;;;;;;;;;;;;;;5135188;27;20023;-67
2023/02/23 10:49:17;;;;;;;;;;;;;;;;;;5134955;27;20073;-69
2023/02/23 10:51:43;;;;;;;;;;;;;;;;;;5135274;27;19951;-68
2023/02/23 10:54:09;;;;;;;;;;;;;;;;;;5134693;28;20047;-68
2023/02/23 10:56:35;;;;;;;;;;;;;;;;;;5134980;28;19994;-70
2023/02/23 10:59:01;;;;;;;;;;;;;;;;;;5134580;28;20315;-68
2023/02/23 11:01:27;;;;;;;;;;;;;;;;;;5135155;28;19950;-69
2023/02/23 11:03:53;;;;;;;;;;;;;;;;;;5134602;28;19992;-69
2023/02/23 11:06:19;;;;;;;;;;;;;;;;;;5134604;28;19960;-69
2023/02/23 11:08:44;;;;;;;;;;;;;;;;;;5134610;28;19972;-70
2023/02/23 11:11:10;;;;;;;;;;;;;;;;;;5134544;28;20081;-71
2023/02/23 11:13:36;;;;;;;;;;;;;;;;;;5135008;28;19974;-70
2023/02/23 11:16:02;;;;;;;;;;;;;;;;;;5134508;28;19991;-72
2023/02/23 11:18:28;;;;;;;;;;;;;;;;;;5135111;28;20391;-76
2023/02/23 11:20:54;;;;;;;;;;;;;;;;;;5134425;28;20389;-76
2023/02/23 11:23:20;;;;;;;;;;;;;;;;;;5133427;28;19977;-75
2023/02/23 11:25:46;;;;;;;;;;;;;;;;;;5133655;28;20337;-75
2023/02/23 11:28:12;;;;;;;;;;;;;;;;;;5115834;28;19982;-75
2023/02/23 11:30:41;;;;;;;;;;;;;;;;;;5134336;28;20036;-76
2023/02/23 11:33:10;;;;;;;;;;;;;;;;;;5134697;28;20355;-76
2023/02/23 11:35:36;;;;;;;;;;;;;;;;;;5134604;28;20409;-76
2023/02/23 11:38:02;;;;;;;;;;;;;;;;;;5134568;28;20408;-75
2023/02/23 11:40:28;;;;;;;;;;;;;;;;;;5134539;28;19996;-77
2023/02/23 11:42:54;;;;;;;;;;;;;;;;;;5134248;28;19951;-76
2023/02/23 11:45:20;;;;;;;;;;;;;;;;;;5134252;28;20330;-75
2023/02/23 11:47:46;;;;;;;;;;;;;;;;;;5134691;27;20410;-75
2023/02/23 11:50:12;;;;;;;;;;;;;;;;;;5137794;27;20414;-76
2023/02/23 11:52:38;;;;;;;;;;;;;;;;;;5138049;27;19947;-75
2023/02/23 11:55:03;;;;;;;;;;;;;;;;;;5138209;27;19951;-76
2023/02/23 11:57:29;;;;;;;;;;;;;;;;;;5137876;27;19951;-76
2023/02/23 11:59:55;;;;;;;;;;;;;;;;;;5138170;27;19957;-76
2023/02/23 12:02:22;;;;;;;;;;;;;;;;;;5137782;27;19955;-76
2023/02/23 12:04:47;;;;;;;;;;;;;;;;;;5137744;27;19951;-76
2023/02/23 12:07:13;;;;;;;;;;;;;;;;;;5138000;27;19945;-76
2023/02/23 12:09:39;;;;;;;;;;;;;;;;;;5137414;27;19978;-75
2023/02/23 12:12:05;;;;;;;;;;;;;;;;;;5137923;27;19955;-75
2023/02/23 12:14:31;;;;;;;;;;;;;;;;;;5137629;27;19993;-75
2023/02/23 12:16:57;;;;;;;;;;;;;;;;;;5137539;27;20405;-75
2023/02/23 12:19:23;;;;;;;;;;;;;;;;;;5137735;27;19952;-76
2023/02/23 12:21:49;;;;;;;;;;;;;;;;;;5137431;27;20017;-75
2023/02/23 12:24:15;;;;;;;;;;;;;;;;;;5137366;27;19949;-77
2023/02/23 12:26:41;;;;;;;;;;;;;;;;;;5137648;27;20045;-75
2023/02/23 12:29:07;;;;;;;;;;;;;;;;;;5137251;27;19970;-75
2023/02/23 12:31:33;;;;;;;;;;;;;;;;;;5137520;27;19948;-76
2023/02/23 12:33:59;;;;;;;;;;;;;;;;;;5137217;27;20015;-76
2023/02/23 12:36:25;;;;;;;;;;;;;;;;;;5137466;27;19959;-75
2023/02/23 12:38:51;;;;;;;;;;;;;;;;;;5137128;27;19950;-75
2023/02/23 12:41:17;;;;;;;;;;;;;;;;;;5137094;27;19954;-76
2023/02/23 12:43:50;;;;;;;;;;;;;;;;;;5137354;27;19957;-75
2023/02/23 12:46:19;;;;;;;;;;;;;;;;;;5137035;27;19950;-76
2023/02/23 12:48:45;;;;;;;;;;;;;;;;;;5137158;27;19992;-76
2023/02/23 12:51:11;;;;;;;;;;;;;;;;;;5137163;27;20436;-76
2023/02/23 12:53:37;;;;;;;;;;;;;;;;;;5137400;27;19960;-74
2023/02/23 12:56:03;;;;;;;;;;;;;;;;;;5136730;27;20384;-77
2023/02/23 12:58:29;;;;;;;;;;;;;;;;;;5137286;27;19950;-76
2023/02/23 13:00:56;;;;;;;;;;;;;;;;;;5135462;27;19952;-74
2023/02/23 13:03:22;;;;;;;;;;;;;;;;;;5118171;27;19977;-76
2023/02/23 13:05:48;;;;;;;;;;;;;;;;;;5137198;27;19949;-77
2023/02/23 13:08:16;;;;;;;;;;;;;;;;;;5136666;27;20342;-77
2023/02/23 13:10:42;;;;;;;;;;;;;;;;;;5136527;27;19989;-75
2023/02/23 13:13:10;;;;;;;;;;;;;;;;;;5136845;27;20031;-76
2023/02/23 13:15:36;;;;;;;;;;;;;;;;;;5136347;27;19953;-75
2023/02/23 13:18:02;;;;;;;;;;;;;;;;;;5136376;27;20002;-76
2023/02/23 13:20:29;;;;;;;;;;;;;;;;;;5117876;27;20441;-76
2023/02/23 13:22:55;;;;;;;;;;;;;;;;;;5136276;27;19950;-75
2023/02/23 13:25:21;;;;;;;;;;;;;;;;;;5136777;27;20362;-76
2023/02/23 13:27:47;;;;;;;;;;;;;;;;;;5117667;27;19983;-76
2023/02/23 13:30:15;;;;;;;;;;;;;;;;;;5136355;27;19956;-76
2023/02/23 13:32:41;;;;;;;;;;;;;;;;;;5136312;27;19951;-76
2023/02/23 13:35:07;;;;;;;;;;;;;;;;;;5136225;27;20429;-75
2023/02/23 13:37:33;;;;;;;;;;;;;;;;;;5135852;27;19947;-75
2023/02/23 13:39:59;;;;;;;;;;;;;;;;;;5136151;27;19948;-75
2023/02/23 13:42:26;;;;;;;;;;;;;;;;;;5117319;27;19949;-75
2023/02/23 13:44:52;;;;;;;;;;;;;;;;;;5135786;27;19958;-75
2023/02/23 13:47:18;;;;;;;;;;;;;;;;;;5117253;27;19954;-76
2023/02/23 13:49:45;;;;;;;;;;;;;;;;;;5117063;27;20454;-76
2023/02/23 13:52:11;;;;;;;;;;;;;;;;;;5135821;27;19951;-76
2023/02/23 13:54:37;;;;;;;;;;;;;;;;;;5135801;27;19956;-76
2023/02/23 13:57:04;;;;;;;;;;;;;;;;;;5135888;27;19995;-76
2023/02/23 13:59:32;;;;;;;;;;;;;;;;;;5135512;27;19952;-74
2023/02/23 14:01:57;;;;;;;;;;;;;;;;;;5135734;27;20296;-76
2023/02/23 14:04:23;;;;;;;;;;;;;;;;;;5135679;27;20036;-76
2023/02/23 14:06:49;;;;;;;;;;;;;;;;;;5135426;27;19953;-75
2023/02/23 14:09:16;;;;;;;;;;;;;;;;;;5135317;27;20463;-76
2023/02/23 14:11:42;;;;;;;;;;;;;;;;;;5116251;27;19998;-77
2023/02/23 14:14:08;;;;;;;;;;;;;;;;;;5135492;27;20050;-75
2023/02/23 14:16:35;;;;;;;;;;;;;;;;;;5135185;27;19992;-77
2023/02/23 14:19:01;;;;;;;;;;;;;;;;;;5135044;27;20074;-76
2023/02/23 14:21:27;;;;;;;;;;;;;;;;;;5135125;27;19987;-74
2023/02/23 14:23:53;;;;;;;;;;;;;;;;;;5135373;27;20316;-76
2023/02/23 14:26:19;;;;;;;;;;;;;;;;;;5135100;27;19949;-75
2023/02/23 14:28:47;;;;;;;;;;;;;;;;;;5135202;27;19968;-76
2023/02/23 14:31:14;;;;;;;;;;;;;;;;;;5135298;27;19947;-75
2023/02/23 14:33:40;;;;;;;;;;;;;;;;;;5135508;27;19951;-76
2023/02/23 14:36:06;;;;;;;;;;;;;;;;;;5134898;27;19952;-75
2023/02/23 14:38:32;;;;;;;;;;;;;;;;;;5135078;27;19951;-75
2023/02/23 14:40:58;;;;;;;;;;;;;;;;;;5116450;27;19962;-75
2023/02/23 14:43:24;;;;;;;;;;;;;;;;;;5135308;27;20351;-75
2023/02/23 14:45:50;;;;;;;;;;;;;;;;;;5135003;27;19995;-75
2023/02/23 14:48:16;;;;;;;;;;;;;;;;;;5134623;27;19966;-75
2023/02/23 14:50:42;;;;;;;;;;;;;;;;;;5134744;27;20320;-76
2023/02/23 14:53:08;;;;;;;;;;;;;;;;;;5135240;27;19951;-75
2023/02/23 14:55:35;;;;;;;;;;;;;;;;;;5134664;28;19946;-75
2023/02/23 14:58:01;;;;;;;;;;;;;;;;;;5135248;28;20428;-76
2023/02/23 15:00:27;;;;;;;;;;;;;;;;;;5134624;28;19953;-75
2023/02/23 15:02:53;;;;;;;;;;;;;;;;;;5134843;28;19997;-75
2023/02/23 15:05:19;;;;;;;;;;;;;;;;;;5134567;28;19951;-74
2023/02/23 15:07:45;;;;;;;;;;;;;;;;;;5135053;28;19952;-75
2023/02/23 15:10:11;;;;;;;;;;;;;;;;;;5134321;28;19988;-75
2023/02/23 15:12:37;;;;;;;;;;;;;;;;;;5134759;28;19959;-75
2023/02/23 15:15:03;;;;;;;;;;;;;;;;;;5134370;28;19989;-76
2023/02/23 15:17:30;;;;;;;;;;;;;;;;;;5134454;28;19952;-76
2023/02/23 15:19:56;;;;;;;;;;;;;;;;;;5134758;28;19949;-75
2023/02/23 15:22:22;;;;;;;;;;;;;;;;;;5134435;27;20038;-75
2023/02/23 15:24:48;;;;;;;;;;;;;;;;;;5137883;27;19999;-75
2023/02/23 15:27:14;;;;;;;;;;;;;;;;;;5138485;27;19954;-76
2023/02/23 15:29:40;;;;;;;;;;;;;;;;;;5138669;27;19970;-76
2023/02/23 15:32:06;;;;;;;;;;;;;;;;;;5138673;27;20348;-75
2023/02/23 15:34:32;;;;;;;;;;;;;;;;;;5138911;27;19952;-75
2023/02/23 15:36:58;;;;;;;;;;;;;;;;;;5138376;27;19950;-75
2023/02/23 15:39:24;;;;;;;;;;;;;;;;;;5138973;27;20315;-77
2023/02/23 15:41:50;;;;;;;;;;;;;;;;;;5138200;27;20017;-75
2023/02/23 15:44:16;;;;;;;;;;;;;;;;;;5138436;27;19948;-76
2023/02/23 15:46:41;;;;;;;;;;;;;;;;;;5138088;27;19955;-76
2023/02/23 15:49:07;;;;;;;;;;;;;;;;;;5138290;27;19972;-76
2023/02/23 15:51:33;;;;;;;;;;;;;;;;;;5138366;27;19955;-76
2023/02/23 15:53:59;;;;;;;;;;;;;;;;;;5119919;27;19946;-77
2023/02/23 15:56:26;;;;;;;;;;;;;;;;;;5137969;27;20277;-76
2023/02/23 15:58:54;;;;;;;;;;;;;;;;;;5138240;27;20047;-76
2023/02/23 16:01:23;;;;;;;;;;;;;;;;;;5137984;27;19957;-75
2023/02/23 16:03:49;;;;;;;;;;;;;;;;;;5138407;27;20415;-74
2023/02/23 16:06:15;;;;;;;;;;;;;;;;;;5137776;27;20029;-75
2023/02/23 16:08:41;;;;;;;;;;;;;;;;;;5137501;27;25056;-75
2023/02/23 16:11:07;;;;;;;;;;;;;;;;;;5137657;27;20006;-76
2023/02/23 16:13:33;;;;;;;;;;;;;;;;;;5137555;27;25149;-76
2023/02/23 16:15:59;;;;;;;;;;;;;;;;;;5137412;27;25073;-78
2023/02/23 16:18:24;;;;;;;;;;;;;;;;;;5138223;27;25062;-79
2023/02/23 16:20:54;;;;;;;;;;;;;;;;;;5138665;27;25074;-86
2023/02/23 16:23:35;;;;;;;;;;;8.50;99.90;;;;;;5137444;27;20160;-82
2023/02/23 16:26:06;;;;;;;;;;;6.20;99.90;;;;;;5137727;27;20205;-79
2023/02/23 16:28:33;;;;;;;;;;;6.30;99.90;;;;;;5137264;27;20765;-77
2023/02/23 16:31:00;;;;;;;;;;;6.20;99.90;;;;;;5137433;27;20868;-78
2023/02/23 16:33:29;;;;;;;;;;;6.20;99.90;;;;;;5137493;27;21011;-76
2023/02/23 16:36:07;;;;;;;;;;;6.30;99.90;;;;;;5136796;27;25124;-79
2023/02/23 16:40:47;;;;;;;;;;;6.50;99.90;;;;;;5153248;27;25151;-76
2023/02/23 16:43:13;;;;;;;;;;;6.50;99.90;;;;;;5152600;27;25170;-77
2023/02/23 16:45:40;;;;;;;;;;;6.50;99.90;;;;;;5153158;27;25143;-78
2023/02/23 16:48:10;;;;;;;;;;;6.50;99.90;;;;;;5152542;27;25086;-77
2023/02/23 16:50:39;;;;;;;;;;;6.50;99.90;;;;;;5153031;27;25060;-78
2023/02/23 16:53:08;;;;;;;;;;;6.50;99.90;;;;;;5152396;27;25058;-78
2023/02/23 16:55:38;;;;;;;;;;;6.50;99.90;;;;;;5152355;27;25072;-78
2023/02/23 16:58:06;;;;;;;;;;;6.50;99.90;;;;;;5152467;27;20055;-77
2023/02/23 17:00:32;;;;;;;;;;;6.50;99.90;;;;;;5152145;27;25071;-79
2023/02/23 17:02:59;;;;;;;;;;;6.50;99.90;;;;;;5152963;27;20227;-79
2023/02/23 17:05:25;;;;;;;;;;;6.50;99.90;;;;;;5152293;27;20671;-78
2023/02/23 17:07:51;;;;;;;;;;;6.50;99.90;;;;;;5152593;27;20256;-84
2023/02/23 17:10:24;;;;;;;;;;;6.60;99.90;;;;;;5152327;27;20447;-80
2023/02/23 17:12:54;;;;;;;;;;;6.50;99.90;;;;;;5152544;27;20755;-80
2023/02/23 17:15:20;;;;;;;;;;;;;;;;;;5132513;27;20854;-82
2023/02/23 17:17:45;;;;;;;;;;;6.50;99.90;;;;;;5133737;28;20393;-79
2023/02/23 17:20:16;;;;;;;;;;;6.50;99.90;;;;;;5134990;28;20363;-81
2023/02/23 17:22:42;;;;;;;;;;;6.40;99.90;;;;;;5132551;28;20656;-79
2023/02/23 17:25:08;;;;;;;;;;;;;;;;;;5131012;28;25132;-81
2023/02/23 17:27:33;;;;;;;;;;;6.40;99.90;;;;;;5131009;28;20329;-82
2023/02/23 17:29:59;;;;;;;;;;;;;;;;;;5131170;28;20355;-80
2023/02/23 17:32:25;;;;;;;;;;;;;;;;;;5131705;28;20703;-81
2023/02/23 17:34:52;;;;;;;;;;;;;;;;;;5131360;28;20347;-82
2023/02/23 17:37:21;;;;;;;;;;;;;;;;;;5131046;28;20398;-83
2023/02/23 17:39:49;;;;;;;;;;;;;;;;;;5130694;28;20399;-79
2023/02/23 17:42:15;;;;;;;;;;;;;;;;;;5130913;28;20351;-79
2023/02/23 17:44:41;;;;;;;;;;;;;;;;;;5131161;28;20351;-80
2023/02/23 17:47:07;;;;;;;;;;;;;;;;;;5131114;28;20850;-79
2023/02/23 17:49:33;;;;;;;;;;;;;;;;;;5131283;28;20379;-79
2023/02/23 17:51:58;;;;;;;;;;;6.60;99.90;;;;;;5117897;28;20393;-80